Time;durP1;ratioP1;P1;durP2;ratioP2;P2;SDS_P1;SDS_P2;PMS_P1;PMS_P2;Temp;Humidity;BMP_temperature;BMP_pressure;BME280_temperature;BME280_humidity;BME280_pressure;Samples;Min_cycle;Max_cycle;Signal;HPM_P1;HPM_P2
2021/07/05 00:01:54;;;;;;;65.55;17.60;;;;;;;;;;5087959;28;20032;-66
2021/07/05 00:04:19;;;;;;;63.05;16.23;;;;;;;;;;5073114;28;20124;-66
2021/07/05 00:06:44;;;;;;;37.30;13.02;;;;;;;;;;5080855;28;20358;-66
2021/07/05 00:09:10;;;;;;;63.03;15.65;;;;;;;;;;5093981;28;20040;-67
2021/07/05 00:11:35;;;;;;;37.80;12.05;;;;;;;;;;5094040;28;20073;-66
2021/07/05 00:14:01;;;;;;;45.80;14.10;;;;;;;;;;5093517;28;20028;-66
2021/07/05 00:16:26;;;;;;;41.58;13.13;;;;;;;;;;5093938;28;20032;-67
2021/07/05 00:18:52;;;;;;;45.35;11.57;;;;;;;;;;5093439;28;20024;-67
2021/07/05 00:21:17;;;;;;;44.90;13.07;;;;;;;;;;5086807;28;20026;-67
2021/07/05 00:23:42;;;;;;;46.33;13.55;;;;;;;;;;5093825;28;20036;-66
2021/07/05 00:26:09;;;;;;;45.25;13.32;;;;;;;;;;5093639;28;20016;-67
2021/07/05 00:28:35;;;;;;;54.13;14.93;;;;;;;;;;5093459;28;20031;-66
2021/07/05 00:31:00;;;;;;;68.53;15.05;;;;;;;;;;5093020;28;20036;-67
2021/07/05 00:33:25;;;;;;;54.65;13.48;;;;;;;;;;5093486;28;20031;-67
2021/07/05 00:35:50;;;;;;;41.92;12.50;;;;;;;;;;5093491;28;20027;-67
2021/07/05 00:38:16;;;;;;;47.00;14.15;;;;;;;;;;5093277;28;20510;-67
2021/07/05 00:40:41;;;;;;;48.20;13.18;;;;;;;;;;5093467;28;20023;-67
2021/07/05 00:43:06;;;;;;;44.47;13.65;;;;;;;;;;5093202;28;20027;-67
2021/07/05 00:45:32;;;;;;;49.67;13.02;;;;;;;;;;5093460;28;20115;-66
2021/07/05 00:47:58;;;;;;;32.70;12.32;;;;;;;;;;5093285;28;20046;-67
2021/07/05 00:50:27;;;;;;;44.83;11.63;;;;;;;;;;5093238;28;20365;-67
2021/07/05 00:52:53;;;;;;;42.22;12.05;;;;;;;;;;5092868;28;20031;-67
2021/07/05 00:55:18;;;;;;;28.40;10.60;;;;;;;;;;5093224;28;20111;-67
2021/07/05 00:57:44;;;;;;;38.80;10.80;;;;;;;;;;5093163;28;20064;-67
2021/07/05 01:00:11;;;;;;;35.53;9.98;;;;;;;;;;5093214;28;20058;-67
2021/07/05 01:02:36;;;;;;;41.10;11.30;;;;;;;;;;5093313;28;20023;-66
2021/07/05 01:05:02;;;;;;;23.17;9.77;;;;;;;;;;5092821;28;20443;-67
2021/07/05 01:07:29;;;;;;;39.78;10.30;;;;;;;;;;5093115;28;20117;-67
2021/07/05 01:09:55;;;;;;;43.22;10.73;;;;;;;;;;5092999;28;20027;-66
2021/07/05 01:12:20;;;;;;;36.33;10.35;;;;;;;;;;5093009;28;20024;-67
2021/07/05 01:14:45;;;;;;;29.83;10.43;;;;;;;;;;5093253;28;20365;-66
2021/07/05 01:17:13;;;;;;;37.65;11.30;;;;;;;;;;5090777;28;20479;-67
2021/07/05 01:19:38;;;;;;;38.05;11.65;;;;;;;;;;5084855;28;20531;-67
2021/07/05 01:22:04;;;;;;;38.88;10.95;;;;;;;;;;5080620;28;20037;-66
2021/07/05 01:24:29;;;;;;;34.67;10.95;;;;;;;;;;5091474;28;20383;-67
2021/07/05 01:26:55;;;;;;;33.13;10.73;;;;;;;;;;5083284;28;20028;-66
2021/07/05 01:29:20;;;;;;;59.72;12.27;;;;;;;;;;5085271;28;20032;-66
2021/07/05 01:31:46;;;;;;;53.50;12.50;;;;;;;;;;5075374;28;20029;-66
2021/07/05 01:34:11;;;;;;;47.30;12.60;;;;;;;;;;5076045;28;20020;-67
2021/07/05 01:36:36;;;;;;;33.85;10.05;;;;;;;;;;5077129;28;20345;-67
2021/07/05 01:39:01;;;;;;;36.25;10.93;;;;;;;;;;5088509;28;20700;-67
2021/07/05 01:41:27;;;;;;;36.58;10.18;;;;;;;;;;5093142;28;20035;-67
2021/07/05 01:43:52;;;;;;;22.13;9.77;;;;;;;;;;5088930;28;20036;-67
2021/07/05 01:46:17;;;;;;;37.70;10.50;;;;;;;;;;5090475;28;20458;-66
2021/07/05 01:48:45;;;;;;;32.45;9.15;;;;;;;;;;5086662;28;20025;-66
2021/07/05 01:51:10;;;;;;;32.40;9.77;;;;;;;;;;5073901;28;20473;-67
2021/07/05 01:53:36;;;;;;;34.20;9.75;;;;;;;;;;5088803;28;20076;-66
2021/07/05 01:56:01;;;;;;;21.40;8.45;;;;;;;;;;5088876;28;20050;-67
2021/07/05 01:58:26;;;;;;;40.03;10.52;;;;;;;;;;5092056;28;20062;-66
2021/07/05 02:00:53;;;;;;;36.42;9.55;;;;;;;;;;5077575;28;20069;-67
2021/07/05 02:03:18;;;;;;;40.40;11.00;;;;;;;;;;5085149;28;20035;-67
2021/07/05 02:05:47;;;;;;;40.40;10.70;;;;;;;;;;5074307;28;20140;-67
2021/07/05 02:08:13;;;;;;;32.10;9.60;;;;;;;;;;5079308;28;20102;-66
2021/07/05 02:10:39;;;;;;;33.60;10.05;;;;;;;;;;5075407;28;20138;-66
2021/07/05 02:13:09;;;;;;;30.98;9.68;;;;;;;;;;5084678;28;20027;-67
2021/07/05 02:15:34;;;;;;;43.38;12.30;;;;;;;;;;5096547;28;20027;-67
2021/07/05 02:18:00;;;;;;;42.85;11.25;;;;;;;;;;5085125;28;20107;-66
2021/07/05 02:20:28;;;;;;;38.28;10.15;;;;;;;;;;5087091;28;20127;-67
2021/07/05 02:22:54;;;;;;;34.88;12.07;;;;;;;;;;5075720;28;20013;-66
2021/07/05 02:25:22;;;;;;;32.60;11.05;;;;;;;;;;5087759;28;20047;-67
2021/07/05 02:27:48;;;;;;;32.30;10.80;;;;;;;;;;5095986;28;20059;-67
2021/07/05 02:30:18;;;;;;;45.42;10.98;;;;;;;;;;5095837;28;20052;-67
2021/07/05 02:32:44;;;;;;;34.42;11.27;;;;;;;;;;5096213;28;20031;-67
2021/07/05 02:35:10;;;;;;;47.55;12.10;;;;;;;;;;5082215;28;20036;-66
2021/07/05 02:37:36;;;;;;;27.73;10.43;;;;;;;;;;5095826;28;20020;-67
2021/07/05 02:40:02;;;;;;;29.00;9.35;;;;;;;;;;5085683;28;20449;-67
2021/07/05 02:42:27;;;;;;;43.42;11.35;;;;;;;;;;5084888;28;20036;-67
2021/07/05 02:44:53;;;;;;;51.17;13.20;;;;;;;;;;5083856;28;20030;-67
2021/07/05 02:47:18;;;;;;;53.95;12.73;;;;;;;;;;5095635;28;20031;-67
2021/07/05 02:49:43;;;;;;;44.30;11.32;;;;;;;;;;5094875;28;20388;-66
2021/07/05 02:52:08;;;;;;;44.22;10.85;;;;;;;;;;5085151;28;20099;-67
2021/07/05 02:54:34;;;;;;;44.63;11.18;;;;;;;;;;5090236;28;20024;-67
2021/07/05 02:56:59;;;;;;;66.22;12.88;;;;;;;;;;5082991;28;20060;-67
2021/07/05 02:59:24;;;;;;;46.15;10.98;;;;;;;;;;5080012;28;20060;-67
2021/07/05 03:01:49;;;;;;;76.50;13.43;;;;;;;;;;5088358;28;20024;-67
2021/07/05 03:04:15;;;;;;;49.08;11.90;;;;;;;;;;5089538;28;20047;-67
2021/07/05 03:06:40;;;;;;;59.10;13.98;;;;;;;;;;5076441;28;20024;-66
2021/07/05 03:09:05;;;;;;;56.65;13.60;;;;;;;;;;5074912;28;20086;-67
2021/07/05 03:11:31;;;;;;;55.22;13.32;;;;;;;;;;5076365;28;20031;-67
2021/07/05 03:13:56;;;;;;;67.75;15.65;;;;;;;;;;5074413;28;20020;-67
2021/07/05 03:16:21;;;;;;;76.80;13.95;;;;;;;;;;5078745;28;20036;-67
2021/07/05 03:18:46;;;;;;;74.88;14.48;;;;;;;;;;5074260;28;20124;-67
2021/07/05 03:21:12;;;;;;;44.92;11.95;;;;;;;;;;5080565;28;20518;-66
2021/07/05 03:23:37;;;;;;;46.60;13.00;;;;;;;;;;5077615;28;20111;-67
2021/07/05 03:26:03;;;;;;;45.45;12.07;;;;;;;;;;5089980;28;20429;-67
2021/07/05 03:28:28;;;;;;;42.85;12.23;;;;;;;;;;5077651;28;20024;-66
2021/07/05 03:30:54;;;;;;;38.70;10.60;;;;;;;;;;5085599;28;20024;-67
2021/07/05 03:33:19;;;;;;;43.63;11.20;;;;;;;;;;5084216;28;20043;-67
2021/07/05 03:35:45;;;;;;;39.33;11.45;;;;;;;;;;5085302;28;20052;-66
2021/07/05 03:38:10;;;;;;;38.25;9.95;;;;;;;;;;5090061;28;20098;-67
2021/07/05 03:40:37;;;;;;;22.90;7.78;;;;;;;;;;5094513;28;20065;-67
2021/07/05 03:43:03;;;;;;;26.10;8.68;;;;;;;;;;5090379;28;20021;-65
2021/07/05 03:45:30;;;;;;;25.92;8.57;;;;;;;;;;5094386;28;20028;-67
2021/07/05 03:47:56;;;;;;;32.70;8.95;;;;;;;;;;5093543;28;20485;-67
2021/07/05 03:50:21;;;;;;;25.50;8.40;;;;;;;;;;5091746;28;20489;-67
2021/07/05 03:52:47;;;;;;;28.25;8.30;;;;;;;;;;5092336;28;20032;-66
2021/07/05 03:55:15;;;;;;;33.20;9.13;;;;;;;;;;5092530;28;20043;-67
2021/07/05 03:57:40;;;;;;;28.17;7.85;;;;;;;;;;5094300;28;20065;-66
2021/07/05 04:00:07;;;;;;;29.20;7.82;;;;;;;;;;5082483;28;20040;-66
2021/07/05 04:02:33;;;;;;;21.73;7.05;;;;;;;;;;5093155;28;20024;-67
2021/07/05 04:04:58;;;;;;;23.80;7.07;;;;;;;;;;5085467;28;20089;-67
2021/07/05 04:07:23;;;;;;;27.90;7.40;;;;;;;;;;5094077;28;20097;-66
2021/07/05 04:09:49;;;;;;;29.00;7.32;;;;;;;;;;5092165;28;20027;-67
2021/07/05 04:12:18;;;;;;;17.48;6.63;;;;;;;;;;5086482;28;20112;-66
2021/07/05 04:14:43;;;;;;;22.92;6.50;;;;;;;;;;5093837;28;20140;-67
2021/07/05 04:17:09;;;;;;;21.98;6.35;;;;;;;;;;5088388;28;20032;-66
2021/07/05 04:19:34;;;;;;;24.38;6.43;;;;;;;;;;5093995;28;20036;-66
2021/07/05 04:21:59;;;;;;;21.77;7.60;;;;;;;;;;5077352;28;20033;-65
2021/07/05 04:24:25;;;;;;;24.98;6.60;;;;;;;;;;5090298;28;20024;-66
2021/07/05 04:26:50;;;;;;;21.08;8.05;;;;;;;;;;5085391;28;20447;-66
2021/07/05 04:29:15;;;;;;;32.95;6.90;;;;;;;;;;5091291;28;20438;-67
2021/07/05 04:31:40;;;;;;;34.08;7.97;;;;;;;;;;5083102;28;20043;-67
2021/07/05 04:34:06;;;;;;;32.40;8.15;;;;;;;;;;5073396;28;20112;-67
2021/07/05 04:36:31;;;;;;;43.03;9.88;;;;;;;;;;5086535;28;20028;-66
2021/07/05 04:38:56;;;;;;;41.28;9.00;;;;;;;;;;5080240;28;20051;-67
2021/07/05 04:41:22;;;;;;;49.35;10.73;;;;;;;;;;5093199;28;20070;-67
2021/07/05 04:43:47;;;;;;;42.00;9.02;;;;;;;;;;5088964;28;20028;-66
2021/07/05 04:46:15;;;;;;;42.95;9.32;;;;;;;;;;5084292;28;20034;-66
2021/07/05 04:48:40;;;;;;;28.05;7.75;;;;;;;;;;5080242;28;20028;-67
2021/07/05 04:51:08;;;;;;;31.50;8.90;;;;;;;;;;5088565;28;20025;-66
2021/07/05 04:53:33;;;;;;;36.75;7.30;;;;;;;;;;5077582;28;20036;-67
2021/07/05 04:55:58;;;;;;;27.23;6.57;;;;;;;;;;5093442;28;20075;-66
2021/07/05 04:58:24;;;;;;;21.25;6.45;;;;;;;;;;5088233;28;20039;-67
2021/07/05 05:00:49;;;;;;;21.13;6.30;;;;;;;;;;5087567;28;20083;-66
2021/07/05 05:03:14;;;;;;;20.27;6.22;;;;;;;;;;5087330;28;20690;-66
2021/07/05 05:05:41;;;;;;;17.30;5.88;;;;;;;;;;5084950;28;20040;-66
2021/07/05 05:08:07;;;;;;;17.75;5.75;;;;;;;;;;5072996;28;20036;-67
2021/07/05 05:10:33;;;;;;;17.17;5.18;;;;;;;;;;5072606;28;20412;-67
2021/07/05 05:12:58;;;;;;;17.67;5.85;;;;;;;;;;5087347;28;20030;-67
2021/07/05 05:15:23;;;;;;;16.20;5.97;;;;;;;;;;5081592;28;20074;-67
2021/07/05 05:17:49;;;;;;;12.88;4.57;;;;;;;;;;5091625;28;20449;-66
2021/07/05 05:20:15;;;;;;;12.82;5.05;;;;;;;;;;5077293;28;20461;-67
2021/07/05 05:22:41;;;;;;;16.95;5.32;;;;;;;;;;5072838;28;20051;-67
2021/07/05 05:25:07;;;;;;;13.43;4.93;;;;;;;;;;5086251;28;20024;-67
2021/07/05 05:27:32;;;;;;;14.80;5.03;;;;;;;;;;5081997;28;20131;-67
2021/07/05 05:29:58;;;;;;;17.35;5.38;;;;;;;;;;5086163;28;20108;-67
2021/07/05 05:32:23;;;;;;;14.88;4.30;;;;;;;;;;5085278;28;20078;-66
2021/07/05 05:34:48;;;;;;;16.77;4.95;;;;;;;;;;5092949;28;20028;-67
2021/07/05 05:37:14;;;;;;;14.38;5.55;;;;;;;;;;5091043;28;20028;-66
2021/07/05 05:39:39;;;;;;;20.33;4.95;;;;;;;;;;5076359;28;20037;-67
2021/07/05 05:42:04;;;;;;;13.18;4.75;;;;;;;;;;5084148;28;20032;-67
2021/07/05 05:44:31;;;;;;;18.10;4.50;;;;;;;;;;5087221;28;20032;-66
2021/07/05 05:46:56;;;;;;;18.75;5.38;;;;;;;;;;5092000;28;20111;-66
2021/07/05 05:49:22;;;;;;;12.15;4.30;;;;;;;;;;5090623;28;20067;-66
2021/07/05 05:51:48;;;;;;;15.18;4.57;;;;;;;;;;5096827;28;20035;-67
2021/07/05 05:54:13;;;;;;;14.18;4.03;;;;;;;;;;5091093;28;20043;-66
2021/07/05 05:56:40;;;;;;;11.70;3.55;;;;;;;;;;5087695;28;20032;-66
2021/07/05 05:59:07;;;;;;;13.20;4.03;;;;;;;;;;5076152;28;20040;-66
2021/07/05 06:01:34;;;;;;;10.85;3.60;;;;;;;;;;5079562;28;20033;-67
2021/07/05 06:03:59;;;;;;;12.35;3.80;;;;;;;;;;5091858;28;20044;-67
2021/07/05 06:06:25;;;;;;;12.63;3.88;;;;;;;;;;5086757;28;20094;-66
2021/07/05 06:08:50;;;;;;;6.93;2.53;;;;;;;;;;5095785;28;20024;-67
2021/07/05 06:11:15;;;;;;;8.45;2.30;;;;;;;;;;5086867;28;20453;-67
2021/07/05 06:13:42;;;;;;;10.65;2.83;;;;;;;;;;5081463;28;20051;-67
2021/07/05 06:16:07;;;;;;;9.27;2.97;;;;;;;;;;5090065;28;20048;-67
2021/07/05 06:18:33;;;;;;;8.70;2.67;;;;;;;;;;5076630;28;20157;-67
2021/07/05 06:20:58;;;;;;;6.45;2.80;;;;;;;;;;5083492;28;20354;-67
2021/07/05 06:23:27;;;;;;;11.73;3.22;;;;;;;;;;5095227;28;20048;-67
2021/07/05 06:25:54;;;;;;;15.35;3.60;;;;;;;;;;5075847;28;20025;-67
2021/07/05 06:28:20;;;;;;;10.35;2.50;;;;;;;;;;5076829;28;20032;-67
2021/07/05 06:30:46;;;;;;;12.60;3.17;;;;;;;;;;5082872;28;20021;-67
2021/07/05 06:33:12;;;;;;;12.15;3.53;;;;;;;;;;5087006;28;20529;-67
2021/07/05 06:35:38;;;;;;;11.75;3.08;;;;;;;;;;5084513;28;20035;-67
2021/07/05 06:38:03;;;;;;;5.28;2.63;;;;;;;;;;5094259;28;20024;-67
2021/07/05 06:40:28;;;;;;;11.27;3.20;;;;;;;;;;5092610;28;20361;-66
2021/07/05 06:42:54;;;;;;;7.47;2.90;;;;;;;;;;5077425;28;20507;-66
2021/07/05 06:45:19;;;;;;;7.72;2.72;;;;;;;;;;5088809;28;20029;-67
2021/07/05 06:47:44;;;;;;;13.05;2.83;;;;;;;;;;5084712;28;20040;-67
2021/07/05 06:50:10;;;;;;;13.70;2.83;;;;;;;;;;5082305;28;20484;-67
2021/07/05 06:52:35;;;;;;;12.98;3.45;;;;;;;;;;5091854;28;20024;-67
2021/07/05 06:55:01;;;;;;;7.28;1.92;;;;;;;;;;5079258;28;20024;-67
2021/07/05 06:57:29;;;;;;;8.13;1.80;;;;;;;;;;5086326;28;20043;-68
2021/07/05 06:59:55;;;;;;;11.52;2.10;;;;;;;;;;5087589;28;20043;-68
2021/07/05 07:02:20;;;;;;;9.05;2.35;;;;;;;;;;5084072;28;20020;-68
2021/07/05 07:04:46;;;;;;;5.75;1.73;;;;;;;;;;5084021;28;20053;-68
2021/07/05 07:07:11;;;;;;;5.70;2.20;;;;;;;;;;5085971;28;20115;-66
2021/07/05 07:09:36;;;;;;;8.02;2.47;;;;;;;;;;5084906;28;20030;-66
2021/07/05 07:12:02;;;;;;;8.50;2.03;;;;;;;;;;5074978;28;20040;-66
2021/07/05 07:14:27;;;;;;;8.80;2.22;;;;;;;;;;5091189;28;20059;-66
2021/07/05 07:17:02;;;;;;;11.50;2.53;;;;;;;;;;5094975;28;20077;-67
2021/07/05 07:19:27;;;;;;;6.45;2.25;;;;;;;;;;5094618;28;20085;-66
2021/07/05 07:21:52;;;;;;;7.00;1.92;;;;;;;;;;5094588;28;20028;-66
2021/07/05 07:24:18;;;;;;;11.05;2.15;;;;;;;;;;5094457;28;20071;-66
2021/07/05 07:26:43;;;;;;;6.65;1.85;;;;;;;;;;5074837;28;20111;-66
2021/07/05 07:29:09;;;;;;;7.78;1.95;;;;;;;;;;5084520;28;20427;-66
2021/07/05 07:31:34;;;;;;;9.40;2.25;;;;;;;;;;5087446;28;20036;-66
2021/07/05 07:34:00;;;;;;;8.10;2.65;;;;;;;;;;5093571;28;20028;-66
2021/07/05 07:36:26;;;;;;;6.45;1.60;;;;;;;;;;5075539;28;20036;-67
2021/07/05 07:38:53;;;;;;;7.25;1.90;;;;;;;;;;5076960;28;22021;-66
2021/07/05 07:41:24;;;;;;;10.48;2.50;;;;;;;;;;5077568;28;20029;-67
2021/07/05 07:43:49;;;;;;;7.82;1.92;;;;;;;;;;5073371;28;20044;-67
2021/07/05 07:46:14;;;;;;;10.43;2.03;;;;;;;;;;5093006;28;20028;-67
2021/07/05 07:48:40;;;;;;;8.63;2.17;;;;;;;;;;5093362;28;20028;-67
2021/07/05 07:51:05;;;;;;;10.15;2.05;;;;;;;;;;5094114;28;20025;-67
2021/07/05 07:53:30;;;;;;;6.07;2.20;;;;;;;;;;5093644;28;20028;-67
2021/07/05 07:55:56;;;;;;;5.90;2.13;;;;;;;;;;5093752;28;20024;-67
2021/07/05 07:58:21;;;;;;;6.90;2.47;;;;;;;;;;5092768;28;20032;-67
2021/07/05 08:00:46;;;;;;;5.32;1.65;;;;;;;;;;5093653;28;20039;-67
2021/07/05 08:03:12;;;;;;;9.88;1.45;;;;;;;;;;5093669;28;20022;-67
2021/07/05 08:05:38;;;;;;;11.55;2.33;;;;;;;;;;5094044;28;20048;-67
2021/07/05 08:08:03;;;;;;;6.30;1.60;;;;;;;;;;5093488;28;20036;-66
2021/07/05 08:10:30;;;;;;;6.47;1.90;;;;;;;;;;5092849;28;20114;-67
2021/07/05 08:12:56;;;;;;;7.75;1.67;;;;;;;;;;5093097;28;20023;-67
2021/07/05 08:15:22;;;;;;;9.20;2.47;;;;;;;;;;5093434;28;20491;-66
2021/07/05 08:17:47;;;;;;;12.70;2.33;;;;;;;;;;5093838;28;20031;-67
2021/07/05 08:20:15;;;;;;;8.35;1.95;;;;;;;;;;5092851;28;20643;-66
2021/07/05 08:22:40;;;;;;;8.63;2.28;;;;;;;;;;5092942;28;20111;-66
2021/07/05 08:25:06;;;;;;;8.45;2.50;;;;;;;;;;5093382;28;20154;-67
2021/07/05 08:27:34;;;;;;;7.85;2.22;;;;;;;;;;5092570;28;20063;-67
2021/07/05 08:29:59;;;;;;;10.55;2.00;;;;;;;;;;5093108;28;20472;-68
2021/07/05 08:32:24;;;;;;;5.85;2.30;;;;;;;;;;5092745;28;20069;-66
2021/07/05 08:34:49;;;;;;;9.35;2.25;;;;;;;;;;5092875;28;20089;-67
2021/07/05 08:37:15;;;;;;;6.65;1.67;;;;;;;;;;5093162;28;20063;-67
2021/07/05 08:39:40;;;;;;;5.27;1.70;;;;;;;;;;5093230;28;20460;-68
2021/07/05 08:42:06;;;;;;;8.35;1.85;;;;;;;;;;5093453;28;20267;-67
2021/07/05 08:44:32;;;;;;;9.10;1.65;;;;;;;;;;5093240;28;20036;-67
